sensor_id;sensor_type;location;lat;lon;timestamp;pressure;altitude;pressure_sealevel;temperature;humidity
34742;BME280;20968;42.696;23.360;2023-04-04T00:00:18;93823.22;;;11.13;78.48
34742;BME280;20968;42.696;23.360;2023-04-04T00:02:44;93822.22;;;11.16;78.14
34742;BME280;20968;42.696;23.360;2023-04-04T00:05:10;93826.91;;;11.21;78.09
34742;BME280;20968;42.696;23.360;2023-04-04T00:07:35;93823.34;;;11.26;78.45
34742;BME280;20968;42.696;23.360;2023-04-04T00:10:00;93824.84;;;11.27;78.21
34742;BME280;20968;42.696;23.360;2023-04-04T00:12:26;93824.81;;;11.32;77.92
34742;BME280;20968;42.696;23.360;2023-04-04T00:14:51;93831.28;;;11.35;78.20
34742;BME280;20968;42.696;23.360;2023-04-04T00:17:17;93831.75;;;11.39;77.82
34742;BME280;20968;42.696;23.360;2023-04-04T00:19:42;93839.22;;;11.44;77.91
34742;BME280;20968;42.696;23.360;2023-04-04T00:22:10;93836.69;;;11.46;77.96
34742;BME280;20968;42.696;23.360;2023-04-04T00:24:37;93838.66;;;11.51;77.24
34742;BME280;20968;42.696;23.360;2023-04-04T00:27:03;93840.41;;;11.54;76.82
34742;BME280;20968;42.696;23.360;2023-04-04T00:29:28;93834.66;;;11.52;76.76
34742;BME280;20968;42.696;23.360;2023-04-04T00:31:53;93834.66;;;11.52;76.89
34742;BME280;20968;42.696;23.360;2023-04-04T00:34:19;93829.59;;;11.56;77.41
34742;BME280;20968;42.696;23.360;2023-04-04T00:36:44;93826.63;;;11.54;77.14
34742;BME280;20968;42.696;23.360;2023-04-04T00:39:10;93822.09;;;11.51;77.31
34742;BME280;20968;42.696;23.360;2023-04-04T00:41:35;93817.81;;;11.55;77.01
34742;BME280;20968;42.696;23.360;2023-04-04T00:44:01;93805.31;;;11.54;77.52
34742;BME280;20968;42.696;23.360;2023-04-04T00:46:27;93807.03;;;11.57;77.41
34742;BME280;20968;42.696;23.360;2023-04-04T00:48:53;93795.72;;;11.61;76.29
34742;BME280;20968;42.696;23.360;2023-04-04T00:51:19;93789.97;;;11.59;76.67
34742;BME280;20968;42.696;23.360;2023-04-04T00:53:45;93791.28;;;11.52;77.01
34742;BME280;20968;42.696;23.360;2023-04-04T00:56:11;93783.97;;;11.55;76.58
34742;BME280;20968;42.696;23.360;2023-04-04T00:58:36;93786.78;;;11.49;77.07
34742;BME280;20968;42.696;23.360;2023-04-04T01:02:53;93787.53;;;11.50;77.17
34742;BME280;20968;42.696;23.360;2023-04-04T01:05:18;93794.81;;;11.53;77.17
34742;BME280;20968;42.696;23.360;2023-04-04T01:07:43;93802.78;;;11.56;76.78
34742;BME280;20968;42.696;23.360;2023-04-04T01:10:09;93792.19;;;11.60;76.78
34742;BME280;20968;42.696;23.360;2023-04-04T01:12:36;93796.00;;;11.57;77.08
34742;BME280;20968;42.696;23.360;2023-04-04T01:15:02;93808.75;;;11.60;76.96
34742;BME280;20968;42.696;23.360;2023-04-04T01:17:28;93797.22;;;11.62;76.56
34742;BME280;20968;42.696;23.360;2023-04-04T01:22:21;93807.25;;;11.59;76.48
34742;BME280;20968;42.696;23.360;2023-04-04T01:24:47;93809.28;;;11.59;75.99
34742;BME280;20968;42.696;23.360;2023-04-04T01:27:13;93805.56;;;11.51;76.74
34742;BME280;20968;42.696;23.360;2023-04-04T01:29:38;93808.59;;;11.53;76.39
34742;BME280;20968;42.696;23.360;2023-04-04T01:32:07;93811.06;;;11.51;76.38
34742;BME280;20968;42.696;23.360;2023-04-04T01:37:26;93816.41;;;11.43;77.44
34742;BME280;20968;42.696;23.360;2023-04-04T01:39:55;93814.66;;;11.46;76.84
34742;BME280;20968;42.696;23.360;2023-04-04T01:42:23;93808.38;;;11.45;77.61
34742;BME280;20968;42.696;23.360;2023-04-04T01:44:53;93800.09;;;11.45;77.61
34742;BME280;20968;42.696;23.360;2023-04-04T01:47:20;93799.41;;;11.39;77.15
34742;BME280;20968;42.696;23.360;2023-04-04T01:49:45;93799.19;;;11.37;77.21
34742;BME280;20968;42.696;23.360;2023-04-04T01:52:11;93795.41;;;11.40;77.69
34742;BME280;20968;42.696;23.360;2023-04-04T01:54:36;93790.97;;;11.32;78.27
34742;BME280;20968;42.696;23.360;2023-04-04T01:57:01;93789.25;;;11.29;78.59
34742;BME280;20968;42.696;23.360;2023-04-04T01:59:27;93778.56;;;11.20;79.14
34742;BME280;20968;42.696;23.360;2023-04-04T02:01:52;93774.31;;;11.19;79.86
34742;BME280;20968;42.696;23.360;2023-04-04T02:04:17;93766.63;;;11.12;79.53
34742;BME280;20968;42.696;23.360;2023-04-04T02:06:42;93770.16;;;11.12;80.07
34742;BME280;20968;42.696;23.360;2023-04-04T02:09:08;93774.44;;;11.08;80.03
34742;BME280;20968;42.696;23.360;2023-04-04T02:11:33;93774.44;;;11.08;80.00
34742;BME280;20968;42.696;23.360;2023-04-04T02:13:58;93778.69;;;11.09;79.78
34742;BME280;20968;42.696;23.360;2023-04-04T02:16:24;93773.00;;;11.01;80.11
34742;BME280;20968;42.696;23.360;2023-04-04T02:18:49;93773.63;;;10.89;79.96
34742;BME280;20968;42.696;23.360;2023-04-04T02:21:15;93771.34;;;10.93;80.38
34742;BME280;20968;42.696;23.360;2023-04-04T02:23:40;93771.25;;;10.98;79.02
34742;BME280;20968;42.696;23.360;2023-04-04T02:26:05;93771.47;;;11.06;78.79
34742;BME280;20968;42.696;23.360;2023-04-04T02:28:31;93772.72;;;11.05;78.01
34742;BME280;20968;42.696;23.360;2023-04-04T02:30:59;93773.09;;;10.90;78.84
34742;BME280;20968;42.696;23.360;2023-04-04T02:33:26;93764.09;;;10.90;79.27
34742;BME280;20968;42.696;23.360;2023-04-04T02:35:51;93760.94;;;10.81;79.06
34742;BME280;20968;42.696;23.360;2023-04-04T02:38:16;93761.81;;;10.65;80.18
34742;BME280;20968;42.696;23.360;2023-04-04T02:40:44;93770.50;;;10.74;80.05
34742;BME280;20968;42.696;23.360;2023-04-04T02:43:09;93767.97;;;10.76;79.85
34742;BME280;20968;42.696;23.360;2023-04-04T02:45:34;93769.56;;;10.66;80.40
34742;BME280;20968;42.696;23.360;2023-04-04T02:48:00;93768.47;;;10.75;80.70
34742;BME280;20968;42.696;23.360;2023-04-04T02:50:25;93781.19;;;10.83;80.75
34742;BME280;20968;42.696;23.360;2023-04-04T02:52:51;93778.88;;;10.87;80.05
34742;BME280;20968;42.696;23.360;2023-04-04T02:55:18;93777.13;;;10.89;80.39
34742;BME280;20968;42.696;23.360;2023-04-04T02:57:49;93775.81;;;10.96;79.79
34742;BME280;20968;42.696;23.360;2023-04-04T03:00:14;93774.53;;;10.97;79.19
34742;BME280;20968;42.696;23.360;2023-04-04T03:02:39;93767.00;;;10.97;79.82
34742;BME280;20968;42.696;23.360;2023-04-04T03:05:05;93770.97;;;11.02;79.50
34742;BME280;20968;42.696;23.360;2023-04-04T03:07:30;93765.47;;;11.02;79.62
34742;BME280;20968;42.696;23.360;2023-04-04T03:09:56;93775.03;;;11.01;79.38
34742;BME280;20968;42.696;23.360;2023-04-04T03:12:22;93773.81;;;10.96;79.87
34742;BME280;20968;42.696;23.360;2023-04-04T03:14:47;93769.78;;;10.97;79.72
34742;BME280;20968;42.696;23.360;2023-04-04T03:17:13;93772.53;;;10.97;79.89
34742;BME280;20968;42.696;23.360;2023-04-04T03:19:39;93774.75;;;11.04;79.20
34742;BME280;20968;42.696;23.360;2023-04-04T03:22:05;93775.66;;;11.12;79.27
34742;BME280;20968;42.696;23.360;2023-04-04T03:24:30;93779.59;;;11.17;78.94
34742;BME280;20968;42.696;23.360;2023-04-04T03:26:58;93779.56;;;11.22;78.37
34742;BME280;20968;42.696;23.360;2023-04-04T03:29:23;93776.50;;;11.26;78.42
34742;BME280;20968;42.696;23.360;2023-04-04T03:31:49;93782.50;;;11.30;79.07
34742;BME280;20968;42.696;23.360;2023-04-04T03:34:14;93770.13;;;11.36;78.39
34742;BME280;20968;42.696;23.360;2023-04-04T03:36:39;93778.09;;;11.40;78.77
34742;BME280;20968;42.696;23.360;2023-04-04T03:39:05;93773.88;;;11.39;78.41
34742;BME280;20968;42.696;23.360;2023-04-04T03:41:30;93776.78;;;11.46;78.38
34742;BME280;20968;42.696;23.360;2023-04-04T03:43:56;93778.00;;;11.51;78.30
34742;BME280;20968;42.696;23.360;2023-04-04T03:46:21;93775.97;;;11.51;78.52
34742;BME280;20968;42.696;23.360;2023-04-04T03:48:46;93778.47;;;11.55;78.90
34742;BME280;20968;42.696;23.360;2023-04-04T03:51:11;93780.19;;;11.58;77.88
34742;BME280;20968;42.696;23.360;2023-04-04T03:53:37;93776.41;;;11.61;78.69
34742;BME280;20968;42.696;23.360;2023-04-04T03:56:02;93775.91;;;11.62;78.74
34742;BME280;20968;42.696;23.360;2023-04-04T03:58:27;93773.13;;;11.62;78.27
34742;BME280;20968;42.696;23.360;2023-04-04T04:00:54;93776.34;;;11.66;78.09
34742;BME280;20968;42.696;23.360;2023-04-04T04:03:19;93780.09;;;11.68;78.36
34742;BME280;20968;42.696;23.360;2023-04-04T04:05:46;93772.03;;;11.70;77.68
34742;BME280;20968;42.696;23.360;2023-04-04T04:08:11;93782.75;;;11.74;78.11
34742;BME280;20968;42.696;23.360;2023-04-04T04:10:36;93781.72;;;11.77;78.69
34742;BME280;20968;42.696;23.360;2023-04-04T04:13:02;93787.00;;;11.75;77.72
34742;BME280;20968;42.696;23.360;2023-04-04T04:15:28;93773.47;;;11.77;77.60
34742;BME280;20968;42.696;23.360;2023-04-04T04:17:54;93769.50;;;11.91;81.96
34742;BME280;20968;42.696;23.360;2023-04-04T04:20:19;93773.94;;;12.67;85.27
34742;BME280;20968;42.696;23.360;2023-04-04T04:22:46;93782.00;;;13.28;82.89
34742;BME280;20968;42.696;23.360;2023-04-04T04:25:12;93791.06;;;13.54;79.30
34742;BME280;20968;42.696;23.360;2023-04-04T04:27:37;93793.75;;;13.86;77.31
34742;BME280;20968;42.696;23.360;2023-04-04T04:30:02;93794.88;;;14.03;74.67
34742;BME280;20968;42.696;23.360;2023-04-04T04:32:28;93796.59;;;13.93;73.10
34742;BME280;20968;42.696;23.360;2023-04-04T04:34:53;93800.13;;;13.68;72.32
34742;BME280;20968;42.696;23.360;2023-04-04T04:37:19;93809.25;;;13.50;71.93
34742;BME280;20968;42.696;23.360;2023-04-04T04:39:44;93806.25;;;13.35;70.90
34742;BME280;20968;42.696;23.360;2023-04-04T04:42:09;93816.63;;;13.16;72.00
34742;BME280;20968;42.696;23.360;2023-04-04T04:44:35;93814.88;;;13.00;72.05
34742;BME280;20968;42.696;23.360;2023-04-04T04:47:00;93814.44;;;12.78;72.47
34742;BME280;20968;42.696;23.360;2023-04-04T04:49:25;93811.03;;;12.72;73.59
34742;BME280;20968;42.696;23.360;2023-04-04T04:51:51;93817.47;;;12.61;73.34
34742;BME280;20968;42.696;23.360;2023-04-04T04:54:17;93817.78;;;12.58;73.42
34742;BME280;20968;42.696;23.360;2023-04-04T04:56:43;93819.78;;;12.57;73.30
34742;BME280;20968;42.696;23.360;2023-04-04T04:59:08;93821.94;;;12.46;73.97
34742;BME280;20968;42.696;23.360;2023-04-04T05:01:35;93831.72;;;12.29;74.15
34742;BME280;20968;42.696;23.360;2023-04-04T05:04:00;93831.50;;;12.27;74.19
34742;BME280;20968;42.696;23.360;2023-04-04T05:06:26;93829.78;;;12.24;74.77
34742;BME280;20968;42.696;23.360;2023-04-04T05:08:51;93839.25;;;12.10;74.81
34742;BME280;20968;42.696;23.360;2023-04-04T05:11:16;93844.06;;;12.04;75.87
34742;BME280;20968;42.696;23.360;2023-04-04T05:13:42;93845.38;;;12.03;75.33
34742;BME280;20968;42.696;23.360;2023-04-04T05:16:07;93839.75;;;12.08;76.37
34742;BME280;20968;42.696;23.360;2023-04-04T05:18:32;93844.97;;;12.12;76.09
34742;BME280;20968;42.696;23.360;2023-04-04T05:20:58;93850.00;;;12.13;75.74
34742;BME280;20968;42.696;23.360;2023-04-04T05:23:23;93852.00;;;12.13;75.75
34742;BME280;20968;42.696;23.360;2023-04-04T05:25:50;93852.97;;;12.15;76.75
34742;BME280;20968;42.696;23.360;2023-04-04T05:28:17;93854.84;;;12.07;75.27
34742;BME280;20968;42.696;23.360;2023-04-04T05:30:42;93850.41;;;11.99;74.61
34742;BME280;20968;42.696;23.360;2023-04-04T05:33:08;93859.22;;;11.97;75.27
34742;BME280;20968;42.696;23.360;2023-04-04T05:35:33;93860.09;;;11.87;75.56
34742;BME280;20968;42.696;23.360;2023-04-04T05:37:59;93862.09;;;11.86;75.82
34742;BME280;20968;42.696;23.360;2023-04-04T05:40:26;93859.56;;;11.88;75.45
34742;BME280;20968;42.696;23.360;2023-04-04T05:42:54;93867.78;;;11.94;75.02
34742;BME280;20968;42.696;23.360;2023-04-04T05:45:20;93862.94;;;12.00;75.81
34742;BME280;20968;42.696;23.360;2023-04-04T05:47:45;93862.59;;;12.09;76.15
34742;BME280;20968;42.696;23.360;2023-04-04T05:50:11;93859.06;;;12.08;76.31
34742;BME280;20968;42.696;23.360;2023-04-04T05:52:36;93858.63;;;12.04;75.45
34742;BME280;20968;42.696;23.360;2023-04-04T05:55:01;93871.97;;;12.00;75.47
34742;BME280;20968;42.696;23.360;2023-04-04T05:57:26;93874.22;;;12.02;76.26
34742;BME280;20968;42.696;23.360;2023-04-04T05:59:53;93874.50;;;11.98;75.28
34742;BME280;20968;42.696;23.360;2023-04-04T06:02:18;93866.25;;;11.98;75.80
34742;BME280;20968;42.696;23.360;2023-04-04T06:04:44;93873.31;;;11.94;75.71
34742;BME280;20968;42.696;23.360;2023-04-04T06:07:09;93873.81;;;11.92;75.44
34742;BME280;20968;42.696;23.360;2023-04-04T06:09:35;93879.59;;;11.89;75.39
34742;BME280;20968;42.696;23.360;2023-04-04T06:12:01;93879.91;;;11.85;74.83
34742;BME280;20968;42.696;23.360;2023-04-04T06:14:28;93874.84;;;11.65;76.12
34742;BME280;20968;42.696;23.360;2023-04-04T06:16:53;93872.84;;;11.66;76.40
34742;BME280;20968;42.696;23.360;2023-04-04T06:19:19;93879.56;;;11.70;76.76
34742;BME280;20968;42.696;23.360;2023-04-04T06:21:44;93879.44;;;11.58;76.84
34742;BME280;20968;42.696;23.360;2023-04-04T06:24:10;93880.91;;;11.64;77.78
34742;BME280;20968;42.696;23.360;2023-04-04T06:26:35;93885.16;;;11.65;78.68
34742;BME280;20968;42.696;23.360;2023-04-04T06:29:01;93882.91;;;11.63;78.63
34742;BME280;20968;42.696;23.360;2023-04-04T06:31:27;93890.72;;;11.60;77.91
34742;BME280;20968;42.696;23.360;2023-04-04T06:33:53;93893.91;;;11.63;78.45
34742;BME280;20968;42.696;23.360;2023-04-04T06:36:18;93899.72;;;11.60;78.39
34742;BME280;20968;42.696;23.360;2023-04-04T06:38:45;93916.63;;;11.16;76.12
34742;BME280;20968;42.696;23.360;2023-04-04T06:41:10;93931.22;;;10.66;75.66
34742;BME280;20968;42.696;23.360;2023-04-04T06:43:35;93933.19;;;10.19;73.17
34742;BME280;20968;42.696;23.360;2023-04-04T06:46:00;93948.00;;;9.78;73.31
34742;BME280;20968;42.696;23.360;2023-04-04T06:48:26;93944.56;;;9.34;73.07
34742;BME280;20968;42.696;23.360;2023-04-04T06:50:51;93953.06;;;9.09;74.99
34742;BME280;20968;42.696;23.360;2023-04-04T06:53:16;93949.53;;;8.81;74.69
34742;BME280;20968;42.696;23.360;2023-04-04T06:55:42;93951.00;;;8.60;74.97
34742;BME280;20968;42.696;23.360;2023-04-04T06:58:07;93954.34;;;8.28;76.06
34742;BME280;20968;42.696;23.360;2023-04-04T07:00:32;93955.56;;;8.16;75.27
34742;BME280;20968;42.696;23.360;2023-04-04T07:02:59;93972.06;;;7.85;75.72
34742;BME280;20968;42.696;23.360;2023-04-04T07:05:25;93976.75;;;7.73;75.15
34742;BME280;20968;42.696;23.360;2023-04-04T07:07:51;93993.41;;;7.70;76.50
34742;BME280;20968;42.696;23.360;2023-04-04T07:10:18;94003.09;;;7.66;75.35
34742;BME280;20968;42.696;23.360;2023-04-04T07:12:44;94003.94;;;7.46;75.60
34742;BME280;20968;42.696;23.360;2023-04-04T07:15:09;94006.00;;;7.51;76.09
34742;BME280;20968;42.696;23.360;2023-04-04T07:17:38;94014.44;;;7.53;75.93
34742;BME280;20968;42.696;23.360;2023-04-04T07:20:05;94026.38;;;7.50;75.63
34742;BME280;20968;42.696;23.360;2023-04-04T07:22:30;94029.25;;;7.36;75.60
34742;BME280;20968;42.696;23.360;2023-04-04T07:24:57;94027.69;;;7.29;75.47
34742;BME280;20968;42.696;23.360;2023-04-04T07:27:22;94039.84;;;7.23;76.08
34742;BME280;20968;42.696;23.360;2023-04-04T07:29:47;94040.59;;;7.23;75.98
34742;BME280;20968;42.696;23.360;2023-04-04T07:32:12;94052.41;;;7.09;75.18
34742;BME280;20968;42.696;23.360;2023-04-04T07:34:38;94050.44;;;7.10;75.80
34742;BME280;20968;42.696;23.360;2023-04-04T07:37:03;94062.19;;;6.96;75.69
34742;BME280;20968;42.696;23.360;2023-04-04T07:39:28;94043.69;;;6.86;75.51
34742;BME280;20968;42.696;23.360;2023-04-04T07:41:54;94056.03;;;6.76;75.25
34742;BME280;20968;42.696;23.360;2023-04-04T07:44:19;94057.19;;;6.69;76.13
34742;BME280;20968;42.696;23.360;2023-04-04T07:46:44;94052.16;;;6.62;75.96
34742;BME280;20968;42.696;23.360;2023-04-04T07:49:10;94065.13;;;6.67;75.91
34742;BME280;20968;42.696;23.360;2023-04-04T07:51:35;94067.16;;;6.72;75.54
34742;BME280;20968;42.696;23.360;2023-04-04T07:54:01;94064.72;;;6.74;75.55
34742;BME280;20968;42.696;23.360;2023-04-04T07:56:26;94077.00;;;6.84;75.23
34742;BME280;20968;42.696;23.360;2023-04-04T07:58:51;94083.56;;;6.72;74.36
34742;BME280;20968;42.696;23.360;2023-04-04T08:01:17;94074.97;;;6.79;74.00
34742;BME280;20968;42.696;23.360;2023-04-04T08:03:42;94088.31;;;6.72;73.72
34742;BME280;20968;42.696;23.360;2023-04-04T08:06:07;94084.34;;;6.73;74.15
34742;BME280;20968;42.696;23.360;2023-04-04T08:08:33;94090.81;;;6.75;74.31
34742;BME280;20968;42.696;23.360;2023-04-04T08:10:58;94111.47;;;6.76;72.96
34742;BME280;20968;42.696;23.360;2023-04-04T08:13:23;94110.81;;;6.61;72.04
34742;BME280;20968;42.696;23.360;2023-04-04T08:15:48;94100.69;;;6.47;72.90
34742;BME280;20968;42.696;23.360;2023-04-04T08:18:14;94101.84;;;6.41;72.95
34742;BME280;20968;42.696;23.360;2023-04-04T08:20:39;94108.81;;;6.42;73.33
34742;BME280;20968;42.696;23.360;2023-04-04T08:23:05;94110.31;;;6.43;73.95
34742;BME280;20968;42.696;23.360;2023-04-04T08:25:30;94119.91;;;6.53;74.65
34742;BME280;20968;42.696;23.360;2023-04-04T08:27:55;94124.47;;;6.61;73.54
34742;BME280;20968;42.696;23.360;2023-04-04T08:30:21;94131.41;;;6.42;71.86
34742;BME280;20968;42.696;23.360;2023-04-04T08:32:46;94117.50;;;6.40;72.87
34742;BME280;20968;42.696;23.360;2023-04-04T08:35:12;94119.59;;;6.31;72.37
34742;BME280;20968;42.696;23.360;2023-04-04T08:37:38;94125.84;;;6.17;72.88
34742;BME280;20968;42.696;23.360;2023-04-04T08:40:07;94128.28;;;6.15;72.70
34742;BME280;20968;42.696;23.360;2023-04-04T08:42:33;94134.44;;;6.10;72.69
34742;BME280;20968;42.696;23.360;2023-04-04T08:45:00;94126.44;;;6.07;72.24
34742;BME280;20968;42.696;23.360;2023-04-04T08:47:30;94139.50;;;6.17;73.05
34742;BME280;20968;42.696;23.360;2023-04-04T08:49:58;94135.84;;;6.20;72.70
34742;BME280;20968;42.696;23.360;2023-04-04T08:52:23;94136.03;;;6.17;72.43
34742;BME280;20968;42.696;23.360;2023-04-04T08:54:51;94138.78;;;6.17;71.80
34742;BME280;20968;42.696;23.360;2023-04-04T08:57:17;94138.91;;;5.93;71.76
34742;BME280;20968;42.696;23.360;2023-04-04T08:59:43;94151.53;;;5.91;72.20
34742;BME280;20968;42.696;23.360;2023-04-04T09:04:33;94164.59;;;6.01;72.50
34742;BME280;20968;42.696;23.360;2023-04-04T09:06:59;94167.13;;;6.05;71.79
34742;BME280;20968;42.696;23.360;2023-04-04T09:09:25;94172.84;;;5.87;71.90
34742;BME280;20968;42.696;23.360;2023-04-04T09:11:51;94165.38;;;5.73;73.15
34742;BME280;20968;42.696;23.360;2023-04-04T09:14:17;94181.00;;;5.72;73.46
34742;BME280;20968;42.696;23.360;2023-04-04T09:16:44;94168.56;;;5.71;73.82
34742;BME280;20968;42.696;23.360;2023-04-04T09:19:10;94172.94;;;5.78;74.22
34742;BME280;20968;42.696;23.360;2023-04-04T09:21:35;94174.00;;;5.71;75.13
34742;BME280;20968;42.696;23.360;2023-04-04T09:24:01;94172.25;;;5.68;74.39
34742;BME280;20968;42.696;23.360;2023-04-04T09:26:27;94179.50;;;5.57;73.75
34742;BME280;20968;42.696;23.360;2023-04-04T09:28:52;94182.88;;;5.66;74.57
34742;BME280;20968;42.696;23.360;2023-04-04T09:31:18;94176.19;;;5.67;74.31
34742;BME280;20968;42.696;23.360;2023-04-04T09:33:43;94182.50;;;5.73;74.46
34742;BME280;20968;42.696;23.360;2023-04-04T09:36:10;94186.75;;;5.74;74.64
34742;BME280;20968;42.696;23.360;2023-04-04T09:38:39;94175.66;;;5.78;75.03
34742;BME280;20968;42.696;23.360;2023-04-04T09:41:07;94173.97;;;5.95;75.76
34742;BME280;20968;42.696;23.360;2023-04-04T09:43:35;94177.63;;;6.06;75.39
34742;BME280;20968;42.696;23.360;2023-04-04T09:46:01;94184.94;;;6.00;74.34
34742;BME280;20968;42.696;23.360;2023-04-04T09:48:29;94183.06;;;6.06;74.27
34742;BME280;20968;42.696;23.360;2023-04-04T09:50:56;94191.00;;;6.04;74.53
34742;BME280;20968;42.696;23.360;2023-04-04T09:53:25;94195.13;;;6.00;74.08
34742;BME280;20968;42.696;23.360;2023-04-04T09:55:51;94177.03;;;6.02;74.65
34742;BME280;20968;42.696;23.360;2023-04-04T09:58:18;94187.31;;;5.93;74.19
34742;BME280;20968;42.696;23.360;2023-04-04T10:00:47;94202.09;;;6.01;73.65
34742;BME280;20968;42.696;23.360;2023-04-04T10:03:13;94185.63;;;5.95;74.16
34742;BME280;20968;42.696;23.360;2023-04-04T10:05:39;94190.34;;;5.95;74.17
34742;BME280;20968;42.696;23.360;2023-04-04T10:08:14;94192.97;;;6.04;73.55
34742;BME280;20968;42.696;23.360;2023-04-04T10:13:41;94208.25;;;5.96;72.82
34742;BME280;20968;42.696;23.360;2023-04-04T10:16:08;94205.38;;;6.05;72.61
34742;BME280;20968;42.696;23.360;2023-04-04T10:18:34;94197.84;;;6.14;72.62
34742;BME280;20968;42.696;23.360;2023-04-04T10:21:04;94206.31;;;6.16;72.88
34742;BME280;20968;42.696;23.360;2023-04-04T10:23:29;94215.09;;;6.20;72.96
34742;BME280;20968;42.696;23.360;2023-04-04T10:25:55;94220.47;;;6.15;72.49
34742;BME280;20968;42.696;23.360;2023-04-04T10:28:21;94219.34;;;6.07;72.61
34742;BME280;20968;42.696;23.360;2023-04-04T10:30:51;94228.31;;;6.07;72.41
34742;BME280;20968;42.696;23.360;2023-04-04T10:33:26;94229.13;;;5.99;72.72
34742;BME280;20968;42.696;23.360;2023-04-04T10:35:54;94234.69;;;6.04;72.16
34742;BME280;20968;42.696;23.360;2023-04-04T10:38:21;94229.72;;;6.03;72.43
34742;BME280;20968;42.696;23.360;2023-04-04T10:40:50;94227.81;;;6.09;73.04
34742;BME280;20968;42.696;23.360;2023-04-04T10:43:17;94248.34;;;5.90;71.81
34742;BME280;20968;42.696;23.360;2023-04-04T10:45:48;94244.41;;;6.05;72.36
34742;BME280;20968;42.696;23.360;2023-04-04T10:48:14;94246.66;;;6.07;73.03
34742;BME280;20968;42.696;23.360;2023-04-04T10:50:40;94239.31;;;5.98;72.29
34742;BME280;20968;42.696;23.360;2023-04-04T10:53:05;94232.72;;;5.90;72.58
34742;BME280;20968;42.696;23.360;2023-04-04T10:55:31;94235.38;;;5.99;73.61
34742;BME280;20968;42.696;23.360;2023-04-04T10:57:57;94249.09;;;6.05;72.92
34742;BME280;20968;42.696;23.360;2023-04-04T11:00:23;94251.19;;;5.95;72.93
34742;BME280;20968;42.696;23.360;2023-04-04T11:02:52;94248.34;;;5.90;72.89
34742;BME280;20968;42.696;23.360;2023-04-04T11:05:31;94244.59;;;6.02;72.98
34742;BME280;20968;42.696;23.360;2023-04-04T11:07:59;94251.00;;;5.99;73.20
34742;BME280;20968;42.696;23.360;2023-04-04T11:10:29;94252.69;;;5.96;72.60
34742;BME280;20968;42.696;23.360;2023-04-04T11:13:30;94256.94;;;5.97;73.58
34742;BME280;20968;42.696;23.360;2023-04-04T11:15:56;94267.00;;;5.91;73.36
34742;BME280;20968;42.696;23.360;2023-04-04T11:19:07;94264.56;;;5.79;73.26
34742;BME280;20968;42.696;23.360;2023-04-04T11:21:08;94269.16;;;5.87;73.64
34742;BME280;20968;42.696;23.360;2023-04-04T11:24:16;94268.34;;;5.96;73.88
34742;BME280;20968;42.696;23.360;2023-04-04T11:28:52;94268.41;;;6.01;72.36
34742;BME280;20968;42.696;23.360;2023-04-04T11:44:16;94280.84;;;5.88;71.35
34742;BME280;20968;42.696;23.360;2023-04-04T11:46:41;94279.59;;;5.89;71.29
34742;BME280;20968;42.696;23.360;2023-04-04T11:49:07;94291.00;;;5.87;70.25
34742;BME280;20968;42.696;23.360;2023-04-04T11:51:33;94280.31;;;5.75;71.62
34742;BME280;20968;42.696;23.360;2023-04-04T11:54:00;94287.84;;;5.65;71.83
34742;BME280;20968;42.696;23.360;2023-04-04T11:56:26;94280.69;;;5.68;71.13
34742;BME280;20968;42.696;23.360;2023-04-04T11:58:51;94290.28;;;5.63;70.89
34742;BME280;20968;42.696;23.360;2023-04-04T12:01:17;94283.31;;;5.62;70.58
34742;BME280;20968;42.696;23.360;2023-04-04T12:03:43;94281.16;;;5.66;71.56
34742;BME280;20968;42.696;23.360;2023-04-04T12:06:09;94286.75;;;5.72;72.01
34742;BME280;20968;42.696;23.360;2023-04-04T12:08:35;94287.53;;;5.87;71.45
34742;BME280;20968;42.696;23.360;2023-04-04T12:11:04;94290.53;;;5.89;70.96
34742;BME280;20968;42.696;23.360;2023-04-04T12:13:30;94289.13;;;5.79;69.75
34742;BME280;20968;42.696;23.360;2023-04-04T12:15:56;94292.66;;;5.70;69.26
34742;BME280;20968;42.696;23.360;2023-04-04T12:18:21;94307.63;;;5.60;70.56
34742;BME280;20968;42.696;23.360;2023-04-04T12:20:49;94290.28;;;5.49;69.94
34742;BME280;20968;42.696;23.360;2023-04-04T12:23:15;94294.16;;;5.57;70.93
34742;BME280;20968;42.696;23.360;2023-04-04T12:25:40;94300.28;;;5.66;71.09
34742;BME280;20968;42.696;23.360;2023-04-04T12:28:08;94302.09;;;5.69;70.67
34742;BME280;20968;42.696;23.360;2023-04-04T12:30:35;94297.66;;;5.72;70.58
34742;BME280;20968;42.696;23.360;2023-04-04T12:33:00;94295.53;;;5.52;69.97
34742;BME280;20968;42.696;23.360;2023-04-04T12:35:26;94302.28;;;5.42;70.15
34742;BME280;20968;42.696;23.360;2023-04-04T12:37:58;94298.94;;;5.24;69.67
34742;BME280;20968;42.696;23.360;2023-04-04T12:40:23;94303.47;;;5.27;71.56
34742;BME280;20968;42.696;23.360;2023-04-04T12:42:52;94300.03;;;5.18;70.76
34742;BME280;20968;42.696;23.360;2023-04-04T12:45:20;94305.03;;;5.19;71.55
34742;BME280;20968;42.696;23.360;2023-04-04T12:47:55;94307.59;;;5.23;71.70
34742;BME280;20968;42.696;23.360;2023-04-04T12:50:22;94310.66;;;5.39;72.03
34742;BME280;20968;42.696;23.360;2023-04-04T12:52:49;94305.88;;;5.48;72.39
34742;BME280;20968;42.696;23.360;2023-04-04T12:55:15;94319.03;;;5.36;71.56
34742;BME280;20968;42.696;23.360;2023-04-04T12:57:44;94311.38;;;5.25;70.85
34742;BME280;20968;42.696;23.360;2023-04-04T13:00:10;94311.59;;;5.13;70.57
34742;BME280;20968;42.696;23.360;2023-04-04T13:02:38;94309.22;;;5.06;71.42
34742;BME280;20968;42.696;23.360;2023-04-04T13:05:06;94312.13;;;5.02;71.09
34742;BME280;20968;42.696;23.360;2023-04-04T13:07:35;94323.94;;;4.99;71.48
34742;BME280;20968;42.696;23.360;2023-04-04T13:10:07;94328.06;;;4.95;71.47
34742;BME280;20968;42.696;23.360;2023-04-04T13:15:16;94351.47;;;4.78;71.88
34742;BME280;20968;42.696;23.360;2023-04-04T13:17:45;94331.97;;;4.70;72.51
34742;BME280;20968;42.696;23.360;2023-04-04T13:20:12;94344.53;;;4.68;73.40